sensor_id;sensor_type;location;lat;lon;timestamp;pressure;altitude;pressure_sealevel;temperature;humidity
55171;BME280;41060;47.510;8.680;2022-08-19T00:01:13;96675.44;;;21.14;60.08
55171;BME280;41060;47.510;8.680;2022-08-19T00:03:40;96672.53;;;21.16;60.04
55171;BME280;41060;47.510;8.680;2022-08-19T00:06:07;96682.28;;;21.17;60.07
55171;BME280;41060;47.510;8.680;2022-08-19T00:08:35;96686.84;;;21.16;60.04
55171;BME280;41060;47.510;8.680;2022-08-19T00:11:02;96688.88;;;21.14;60.23
55171;BME280;41060;47.510;8.680;2022-08-19T00:13:30;96675.84;;;21.11;60.09
55171;BME280;41060;47.510;8.680;2022-08-19T00:15:58;96694.28;;;21.14;60.28
55171;BME280;41060;47.510;8.680;2022-08-19T00:18:25;96662.09;;;20.71;60.50
55171;BME280;41060;47.510;8.680;2022-08-19T00:20:54;96687.38;;;20.77;60.81
55171;BME280;41060;47.510;8.680;2022-08-19T00:23:21;96689.75;;;20.93;60.27
55171;BME280;41060;47.510;8.680;2022-08-19T00:25:48;96689.66;;;21.01;60.27
55171;BME280;41060;47.510;8.680;2022-08-19T00:28:14;96688.63;;;21.02;59.84
55171;BME280;41060;47.510;8.680;2022-08-19T00:30:43;96699.22;;;21.10;60.09
55171;BME280;41060;47.510;8.680;2022-08-19T00:33:10;96711.47;;;21.13;59.81
55171;BME280;41060;47.510;8.680;2022-08-19T00:35:37;96705.88;;;21.15;60.24
55171;BME280;41060;47.510;8.680;2022-08-19T00:38:07;96702.38;;;20.93;60.19
55171;BME280;41060;47.510;8.680;2022-08-19T00:40:33;96696.16;;;20.92;60.04
55171;BME280;41060;47.510;8.680;2022-08-19T00:43:00;96688.44;;;21.04;60.05
55171;BME280;41060;47.510;8.680;2022-08-19T00:45:28;96696.53;;;21.10;59.65
55171;BME280;41060;47.510;8.680;2022-08-19T00:47:59;96696.78;;;21.16;59.10
55171;BME280;41060;47.510;8.680;2022-08-19T00:50:29;96695.56;;;21.18;59.41
55171;BME280;41060;47.510;8.680;2022-08-19T00:52:56;96689.97;;;21.20;59.69
55171;BME280;41060;47.510;8.680;2022-08-19T00:55:29;96691.84;;;21.19;59.76
55171;BME280;41060;47.510;8.680;2022-08-19T00:58:00;96688.13;;;21.20;59.94
55171;BME280;41060;47.510;8.680;2022-08-19T01:00:29;96690.41;;;21.23;59.65
55171;BME280;41060;47.510;8.680;2022-08-19T01:02:56;96678.19;;;21.21;59.14
55171;BME280;41060;47.510;8.680;2022-08-19T01:05:26;96685.84;;;21.24;59.09
55171;BME280;41060;47.510;8.680;2022-08-19T01:07:59;96676.50;;;21.20;59.96
55171;BME280;41060;47.510;8.680;2022-08-19T01:10:28;96682.59;;;21.00;61.10
55171;BME280;41060;47.510;8.680;2022-08-19T01:12:58;96675.09;;;20.96;61.06
55171;BME280;41060;47.510;8.680;2022-08-19T01:15:29;96667.63;;;20.63;61.72
55171;BME280;41060;47.510;8.680;2022-08-19T01:17:59;96681.13;;;20.70;62.29
55171;BME280;41060;47.510;8.680;2022-08-19T01:20:28;96674.75;;;20.78;61.50
55171;BME280;41060;47.510;8.680;2022-08-19T01:22:58;96664.63;;;20.80;61.76
55171;BME280;41060;47.510;8.680;2022-08-19T01:25:28;96665.50;;;20.87;61.04
55171;BME280;41060;47.510;8.680;2022-08-19T01:27:58;96668.25;;;20.93;61.29
55171;BME280;41060;47.510;8.680;2022-08-19T01:30:28;96669.13;;;21.00;60.67
55171;BME280;41060;47.510;8.680;2022-08-19T01:32:56;96673.13;;;21.04;61.10
55171;BME280;41060;47.510;8.680;2022-08-19T01:35:28;96677.84;;;21.02;61.19
55171;BME280;41060;47.510;8.680;2022-08-19T01:38:00;96671.84;;;21.00;60.92
55171;BME280;41060;47.510;8.680;2022-08-19T01:40:30;96678.09;;;21.07;60.68
55171;BME280;41060;47.510;8.680;2022-08-19T01:42:59;96667.47;;;20.99;60.40
55171;BME280;41060;47.510;8.680;2022-08-19T01:45:27;96656.03;;;20.91;60.82
55171;BME280;41060;47.510;8.680;2022-08-19T01:47:55;96677.06;;;21.08;60.37
55171;BME280;41060;47.510;8.680;2022-08-19T01:50:23;96677.22;;;21.00;60.31
55171;BME280;41060;47.510;8.680;2022-08-19T01:52:49;96672.50;;;21.09;60.24
55171;BME280;41060;47.510;8.680;2022-08-19T01:55:20;96656.53;;;21.01;60.31
55171;BME280;41060;47.510;8.680;2022-08-19T01:57:52;96666.09;;;21.10;60.44
55171;BME280;41060;47.510;8.680;2022-08-19T02:00:23;96666.94;;;21.10;60.00
55171;BME280;41060;47.510;8.680;2022-08-19T02:02:50;96658.03;;;21.10;59.94
55171;BME280;41060;47.510;8.680;2022-08-19T02:05:17;96662.41;;;21.18;59.84
55171;BME280;41060;47.510;8.680;2022-08-19T02:07:46;96658.19;;;21.02;60.93
55171;BME280;41060;47.510;8.680;2022-08-19T02:12:42;96667.94;;;20.75;61.99
55171;BME280;41060;47.510;8.680;2022-08-19T02:17:39;96657.00;;;20.83;61.36
55171;BME280;41060;47.510;8.680;2022-08-19T02:20:06;96656.38;;;20.81;61.46
55171;BME280;41060;47.510;8.680;2022-08-19T02:22:34;96659.59;;;20.70;61.76
55171;BME280;41060;47.510;8.680;2022-08-19T02:25:02;96656.91;;;20.70;61.93
55171;BME280;41060;47.510;8.680;2022-08-19T02:27:30;96650.75;;;20.76;61.53
55171;BME280;41060;47.510;8.680;2022-08-19T02:29:59;96653.19;;;20.71;61.84
55171;BME280;41060;47.510;8.680;2022-08-19T02:32:26;96657.50;;;20.65;61.68
55171;BME280;41060;47.510;8.680;2022-08-19T02:34:53;96659.59;;;20.70;61.56
55171;BME280;41060;47.510;8.680;2022-08-19T02:37:20;96639.94;;;20.42;62.13
55171;BME280;41060;47.510;8.680;2022-08-19T02:40:05;96681.44;;;20.54;62.65
55171;BME280;41060;47.510;8.680;2022-08-19T02:42:32;96675.16;;;20.47;62.87
55171;BME280;41060;47.510;8.680;2022-08-19T02:45:02;96672.16;;;20.35;63.39
55171;BME280;41060;47.510;8.680;2022-08-19T02:47:30;96679.66;;;20.40;63.04
55171;BME280;41060;47.510;8.680;2022-08-19T02:49:57;96610.53;;;19.91;63.36
55171;BME280;41060;47.510;8.680;2022-08-19T02:52:24;96679.19;;;20.36;63.60
55171;BME280;41060;47.510;8.680;2022-08-19T02:54:53;96678.31;;;20.29;63.89
55171;BME280;41060;47.510;8.680;2022-08-19T02:57:22;96669.78;;;20.25;63.72
55171;BME280;41060;47.510;8.680;2022-08-19T02:59:49;96662.00;;;20.30;63.73
55171;BME280;41060;47.510;8.680;2022-08-19T03:02:18;96655.78;;;20.30;63.55
55171;BME280;41060;47.510;8.680;2022-08-19T03:04:45;96658.28;;;20.31;63.82
55171;BME280;41060;47.510;8.680;2022-08-19T03:07:13;96664.31;;;20.40;62.81
55171;BME280;41060;47.510;8.680;2022-08-19T03:09:40;96661.91;;;20.45;63.18
55171;BME280;41060;47.510;8.680;2022-08-19T03:12:10;96657.38;;;20.46;62.19
55171;BME280;41060;47.510;8.680;2022-08-19T03:14:37;96665.16;;;20.62;62.33
55171;BME280;41060;47.510;8.680;2022-08-19T03:17:04;96672.03;;;20.71;61.99
55171;BME280;41060;47.510;8.680;2022-08-19T03:19:32;96672.91;;;20.78;61.44
55171;BME280;41060;47.510;8.680;2022-08-19T03:21:59;96677.91;;;20.81;61.25
55171;BME280;41060;47.510;8.680;2022-08-19T03:24:28;96674.81;;;20.84;61.57
55171;BME280;41060;47.510;8.680;2022-08-19T03:26:56;96672.03;;;20.71;62.37
55171;BME280;41060;47.510;8.680;2022-08-19T03:29:24;96671.16;;;20.64;62.59
55171;BME280;41060;47.510;8.680;2022-08-19T03:31:52;96671.44;;;20.48;62.73
55171;BME280;41060;47.510;8.680;2022-08-19T03:34:21;96678.59;;;20.41;62.94
55171;BME280;41060;47.510;8.680;2022-08-19T03:36:52;96679.84;;;20.38;63.46
55171;BME280;41060;47.510;8.680;2022-08-19T03:39:20;96641.31;;;20.10;63.62
55171;BME280;41060;47.510;8.680;2022-08-19T03:41:49;96683.09;;;20.33;63.68
55171;BME280;41060;47.510;8.680;2022-08-19T03:44:19;96674.34;;;20.46;63.05
55171;BME280;41060;47.510;8.680;2022-08-19T03:46:49;96673.63;;;20.38;63.28
55171;BME280;41060;47.510;8.680;2022-08-19T03:49:16;96666.00;;;20.41;62.98
55171;BME280;41060;47.510;8.680;2022-08-19T03:51:43;96662.09;;;20.44;63.04
55171;BME280;41060;47.510;8.680;2022-08-19T03:54:14;96654.41;;;20.41;63.34
55171;BME280;41060;47.510;8.680;2022-08-19T03:56:43;96649.03;;;20.41;63.24
55171;BME280;41060;47.510;8.680;2022-08-19T03:59:14;96661.06;;;20.45;62.84
55171;BME280;41060;47.510;8.680;2022-08-19T04:01:41;96664.00;;;20.50;62.30
55171;BME280;41060;47.510;8.680;2022-08-19T04:04:08;96662.16;;;20.50;61.82
55171;BME280;41060;47.510;8.680;2022-08-19T04:06:37;96666.63;;;20.43;62.71
55171;BME280;41060;47.510;8.680;2022-08-19T04:09:07;96658.25;;;20.53;62.46
55171;BME280;41060;47.510;8.680;2022-08-19T04:11:39;96649.53;;;20.51;62.33
55171;BME280;41060;47.510;8.680;2022-08-19T04:14:07;96662.28;;;20.42;62.16
55171;BME280;41060;47.510;8.680;2022-08-19T04:16:36;96663.25;;;20.34;63.10
55171;BME280;41060;47.510;8.680;2022-08-19T04:19:06;96661.59;;;20.33;62.74
55171;BME280;41060;47.510;8.680;2022-08-19T04:21:34;96629.94;;;19.86;63.67
55171;BME280;41060;47.510;8.680;2022-08-19T04:24:02;96658.97;;;19.98;63.86
55171;BME280;41060;47.510;8.680;2022-08-19T04:26:31;96663.31;;;19.77;64.52
55171;BME280;41060;47.510;8.680;2022-08-19T04:29:00;96673.41;;;19.75;64.71
55171;BME280;41060;47.510;8.680;2022-08-19T04:31:30;96678.44;;;19.64;65.21
55171;BME280;41060;47.510;8.680;2022-08-19T04:33:58;96673.44;;;19.61;65.32
55171;BME280;41060;47.510;8.680;2022-08-19T04:36:27;96684.19;;;19.31;65.77
55171;BME280;41060;47.510;8.680;2022-08-19T04:38:56;96668.03;;;19.10;66.56
55171;BME280;41060;47.510;8.680;2022-08-19T04:41:26;96689.22;;;19.34;66.10
55171;BME280;41060;47.510;8.680;2022-08-19T04:44:13;96693.00;;;19.40;66.12
55171;BME280;41060;47.510;8.680;2022-08-19T04:46:43;96681.41;;;19.54;65.93
55171;BME280;41060;47.510;8.680;2022-08-19T04:49:10;96678.66;;;19.47;66.10
55171;BME280;41060;47.510;8.680;2022-08-19T04:51:40;96678.66;;;19.47;65.83
55171;BME280;41060;47.510;8.680;2022-08-19T04:54:08;96683.34;;;19.45;65.55
55171;BME280;41060;47.510;8.680;2022-08-19T04:56:34;96686.22;;;19.58;65.21
55171;BME280;41060;47.510;8.680;2022-08-19T04:59:02;96692.06;;;19.62;64.89
55171;BME280;41060;47.510;8.680;2022-08-19T05:01:32;96664.94;;;19.57;64.60
55171;BME280;41060;47.510;8.680;2022-08-19T05:04:04;96699.53;;;19.67;65.15
55171;BME280;41060;47.510;8.680;2022-08-19T05:06:32;96700.75;;;19.64;64.70
55171;BME280;41060;47.510;8.680;2022-08-19T05:08:59;96674.56;;;19.51;64.67
55171;BME280;41060;47.510;8.680;2022-08-19T05:11:28;96714.66;;;19.89;64.07
55171;BME280;41060;47.510;8.680;2022-08-19T05:13:55;96712.69;;;19.98;63.74
55171;BME280;41060;47.510;8.680;2022-08-19T05:16:25;96709.25;;;20.04;63.75
55171;BME280;41060;47.510;8.680;2022-08-19T05:18:55;96711.38;;;20.08;63.50
55171;BME280;41060;47.510;8.680;2022-08-19T05:21:40;96719.03;;;20.11;63.38
55171;BME280;41060;47.510;8.680;2022-08-19T05:24:25;96722.75;;;20.10;62.96
55171;BME280;41060;47.510;8.680;2022-08-19T05:26:53;96722.50;;;20.05;63.13
55171;BME280;41060;47.510;8.680;2022-08-19T05:29:23;96729.81;;;19.75;63.59
55171;BME280;41060;47.510;8.680;2022-08-19T05:31:51;96734.09;;;19.70;64.10
55171;BME280;41060;47.510;8.680;2022-08-19T05:34:20;96737.81;;;19.90;63.55
55171;BME280;41060;47.510;8.680;2022-08-19T05:36:52;96734.69;;;19.86;64.04
55171;BME280;41060;47.510;8.680;2022-08-19T05:39:26;96747.25;;;20.01;63.11
55171;BME280;41060;47.510;8.680;2022-08-19T05:41:56;96747.69;;;20.04;63.94
55171;BME280;41060;47.510;8.680;2022-08-19T05:44:24;96750.59;;;20.03;64.07
55171;BME280;41060;47.510;8.680;2022-08-19T05:46:51;96748.34;;;20.06;64.13
55171;BME280;41060;47.510;8.680;2022-08-19T05:49:22;96744.38;;;20.02;64.29
55171;BME280;41060;47.510;8.680;2022-08-19T05:51:50;96740.94;;;20.08;63.84
55171;BME280;41060;47.510;8.680;2022-08-19T05:54:18;96744.47;;;20.09;63.74
55171;BME280;41060;47.510;8.680;2022-08-19T05:56:45;96739.13;;;19.94;64.15
55171;BME280;41060;47.510;8.680;2022-08-19T05:59:13;96743.16;;;20.05;64.11
55171;BME280;41060;47.510;8.680;2022-08-19T06:01:43;96735.16;;;20.11;63.86
55171;BME280;41060;47.510;8.680;2022-08-19T06:04:12;96733.06;;;20.07;63.62
55171;BME280;41060;47.510;8.680;2022-08-19T06:06:41;96739.44;;;20.06;63.93
55171;BME280;41060;47.510;8.680;2022-08-19T06:09:08;96732.03;;;20.08;63.86
55171;BME280;41060;47.510;8.680;2022-08-19T06:11:37;96740.34;;;20.13;63.61
55171;BME280;41060;47.510;8.680;2022-08-19T06:14:07;96741.31;;;20.05;63.73
55171;BME280;41060;47.510;8.680;2022-08-19T06:16:37;96746.94;;;20.10;63.90
55171;BME280;41060;47.510;8.680;2022-08-19T06:19:06;96747.97;;;20.24;63.16
55171;BME280;41060;47.510;8.680;2022-08-19T06:21:36;96741.22;;;20.34;62.43
55171;BME280;41060;47.510;8.680;2022-08-19T06:24:07;96736.63;;;20.50;62.04
55171;BME280;41060;47.510;8.680;2022-08-19T06:26:40;96744.75;;;20.56;61.67
55171;BME280;41060;47.510;8.680;2022-08-19T06:29:09;96742.31;;;20.61;61.15
55171;BME280;41060;47.510;8.680;2022-08-19T06:31:37;96741.53;;;20.67;61.09
55171;BME280;41060;47.510;8.680;2022-08-19T06:34:17;96724.22;;;20.77;60.35
55171;BME280;41060;47.510;8.680;2022-08-19T06:36:46;96742.97;;;20.91;60.52
55171;BME280;41060;47.510;8.680;2022-08-19T06:39:17;96746.41;;;20.85;60.67
55171;BME280;41060;47.510;8.680;2022-08-19T06:41:46;96745.09;;;20.47;61.54
55171;BME280;41060;47.510;8.680;2022-08-19T06:44:15;96740.56;;;20.32;62.22
55171;BME280;41060;47.510;8.680;2022-08-19T06:46:42;96749.50;;;20.18;62.63
55171;BME280;41060;47.510;8.680;2022-08-19T06:49:09;96731.25;;;19.92;62.90
55171;BME280;41060;47.510;8.680;2022-08-19T06:51:40;96751.56;;;20.16;62.62
55171;BME280;41060;47.510;8.680;2022-08-19T06:54:09;96756.91;;;20.52;61.39
55171;BME280;41060;47.510;8.680;2022-08-19T06:56:38;96729.97;;;20.46;61.51
55171;BME280;41060;47.510;8.680;2022-08-19T06:59:10;96755.19;;;20.66;60.89
55171;BME280;41060;47.510;8.680;2022-08-19T07:01:40;96750.75;;;20.58;61.41
55171;BME280;41060;47.510;8.680;2022-08-19T07:04:08;96751.78;;;20.57;61.21
55171;BME280;41060;47.510;8.680;2022-08-19T07:06:36;96754.47;;;20.57;61.23
55171;BME280;41060;47.510;8.680;2022-08-19T07:09:03;96754.25;;;20.80;60.81
55171;BME280;41060;47.510;8.680;2022-08-19T07:11:31;96743.72;;;20.85;59.99
55171;BME280;41060;47.510;8.680;2022-08-19T07:13:59;96757.88;;;20.94;59.68
55171;BME280;41060;47.510;8.680;2022-08-19T07:16:26;96755.13;;;20.87;60.29
55171;BME280;41060;47.510;8.680;2022-08-19T07:18:54;96761.94;;;20.83;60.64
55171;BME280;41060;47.510;8.680;2022-08-19T07:21:23;96765.41;;;20.77;61.30
55171;BME280;41060;47.510;8.680;2022-08-19T07:23:52;96763.44;;;20.92;60.21
55171;BME280;41060;47.510;8.680;2022-08-19T07:26:21;96766.41;;;20.97;60.33
55171;BME280;41060;47.510;8.680;2022-08-19T07:28:48;96762.81;;;21.12;59.70
55171;BME280;41060;47.510;8.680;2022-08-19T07:31:18;96768.50;;;20.74;60.39
55171;BME280;41060;47.510;8.680;2022-08-19T07:33:47;96764.16;;;20.52;61.33
55171;BME280;41060;47.510;8.680;2022-08-19T07:36:17;96774.25;;;20.50;61.85
55171;BME280;41060;47.510;8.680;2022-08-19T07:38:46;96773.56;;;20.41;62.19
55171;BME280;41060;47.510;8.680;2022-08-19T07:41:16;96778.63;;;20.51;62.19
55171;BME280;41060;47.510;8.680;2022-08-19T07:43:46;96778.16;;;20.11;63.16
55171;BME280;41060;47.510;8.680;2022-08-19T07:46:15;96782.97;;;19.80;64.34
55171;BME280;41060;47.510;8.680;2022-08-19T07:48:44;96753.47;;;20.01;63.24
55171;BME280;41060;47.510;8.680;2022-08-19T07:51:13;96750.28;;;20.12;62.68
55171;BME280;41060;47.510;8.680;2022-08-19T07:53:40;96789.63;;;20.34;62.61
55171;BME280;41060;47.510;8.680;2022-08-19T07:56:09;96795.00;;;20.56;61.85
55171;BME280;41060;47.510;8.680;2022-08-19T07:58:39;96795.97;;;20.12;63.24
55171;BME280;41060;47.510;8.680;2022-08-19T08:01:08;96797.25;;;20.31;62.59
55171;BME280;41060;47.510;8.680;2022-08-19T08:03:36;96799.59;;;20.05;63.80
55171;BME280;41060;47.510;8.680;2022-08-19T08:06:23;96809.38;;;20.27;62.66
55171;BME280;41060;47.510;8.680;2022-08-19T08:09:08;96806.53;;;20.50;61.84
55171;BME280;41060;47.510;8.680;2022-08-19T08:11:44;96818.97;;;20.51;62.35
55171;BME280;41060;47.510;8.680;2022-08-19T08:14:15;96824.16;;;20.73;61.12
55171;BME280;41060;47.510;8.680;2022-08-19T08:16:44;96821.94;;;20.98;60.25
55171;BME280;41060;47.510;8.680;2022-08-19T08:19:11;96825.63;;;21.19;59.98
55171;BME280;41060;47.510;8.680;2022-08-19T08:21:42;96822.22;;;21.10;60.23
55171;BME280;41060;47.510;8.680;2022-08-19T08:24:09;96824.31;;;21.15;59.91
55171;BME280;41060;47.510;8.680;2022-08-19T08:26:37;96824.91;;;20.89;60.93
55171;BME280;41060;47.510;8.680;2022-08-19T08:29:05;96833.13;;;20.59;61.32
55171;BME280;41060;47.510;8.680;2022-08-19T08:31:33;96830.66;;;20.43;62.41
55171;BME280;41060;47.510;8.680;2022-08-19T08:34:00;96835.38;;;20.05;63.17
55171;BME280;41060;47.510;8.680;2022-08-19T08:36:28;96824.88;;;20.10;62.85
55171;BME280;41060;47.510;8.680;2022-08-19T08:39:00;96842.78;;;20.03;62.82
55171;BME280;41060;47.510;8.680;2022-08-19T08:41:32;96842.25;;;19.78;64.07
55171;BME280;41060;47.510;8.680;2022-08-19T08:44:02;96846.59;;;19.94;63.53
55171;BME280;41060;47.510;8.680;2022-08-19T08:46:34;96856.13;;;19.96;63.57
55171;BME280;41060;47.510;8.680;2022-08-19T08:49:06;96854.56;;;20.02;63.49
55171;BME280;41060;47.510;8.680;2022-08-19T08:51:42;96857.44;;;20.01;63.43
55171;BME280;41060;47.510;8.680;2022-08-19T08:54:13;96856.41;;;20.02;63.34
55171;BME280;41060;47.510;8.680;2022-08-19T08:56:42;96849.09;;;19.95;63.24
55171;BME280;41060;47.510;8.680;2022-08-19T08:59:14;96867.44;;;20.07;63.34
55171;BME280;41060;47.510;8.680;2022-08-19T09:01:43;96868.28;;;20.07;63.36
55171;BME280;41060;47.510;8.680;2022-08-19T09:04:11;96865.09;;;20.04;63.44
55171;BME280;41060;47.510;8.680;2022-08-19T09:06:44;96866.03;;;19.96;63.82
55171;BME280;41060;47.510;8.680;2022-08-19T09:09:23;96873.81;;;20.06;63.50
55171;BME280;41060;47.510;8.680;2022-08-19T09:11:57;96869.13;;;19.93;64.00
55171;BME280;41060;47.510;8.680;2022-08-19T09:14:36;96867.28;;;19.79;63.80
55171;BME280;41060;47.510;8.680;2022-08-19T09:17:07;96875.78;;;19.68;64.00
55171;BME280;41060;47.510;8.680;2022-08-19T09:19:35;96870.03;;;19.56;64.72
55171;BME280;41060;47.510;8.680;2022-08-19T09:22:02;96889.94;;;19.62;64.78
55171;BME280;41060;47.510;8.680;2022-08-19T09:24:31;96882.41;;;19.42;65.20
55171;BME280;41060;47.510;8.680;2022-08-19T09:26:59;96886.28;;;19.40;65.43
55171;BME280;41060;47.510;8.680;2022-08-19T09:29:26;96883.91;;;19.22;65.89
55171;BME280;41060;47.510;8.680;2022-08-19T09:31:54;96883.41;;;19.27;65.63
55171;BME280;41060;47.510;8.680;2022-08-19T09:34:21;96890.31;;;19.21;65.79
55171;BME280;41060;47.510;8.680;2022-08-19T09:36:48;96887.34;;;19.16;66.19
55171;BME280;41060;47.510;8.680;2022-08-19T09:39:21;96892.28;;;19.27;65.99
55171;BME280;41060;47.510;8.680;2022-08-19T09:41:51;96891.72;;;19.32;65.33
55171;BME280;41060;47.510;8.680;2022-08-19T09:44:19;96896.31;;;19.23;66.20
55171;BME280;41060;47.510;8.680;2022-08-19T09:46:46;96894.75;;;19.29;65.88
55171;BME280;41060;47.510;8.680;2022-08-19T09:49:13;96898.28;;;19.29;65.73
55171;BME280;41060;47.510;8.680;2022-08-19T09:51:40;96901.09;;;19.36;65.64
55171;BME280;41060;47.510;8.680;2022-08-19T09:54:07;96898.41;;;19.36;65.19
55171;BME280;41060;47.510;8.680;2022-08-19T09:56:36;96910.31;;;19.18;65.68
55171;BME280;41060;47.510;8.680;2022-08-19T09:59:04;96913.22;;;19.09;65.82
55171;BME280;41060;47.510;8.680;2022-08-19T10:01:32;96911.38;;;19.09;66.04
55171;BME280;41060;47.510;8.680;2022-08-19T10:04:00;96910.97;;;19.21;66.42
55171;BME280;41060;47.510;8.680;2022-08-19T10:06:29;96912.00;;;19.34;65.89
55171;BME280;41060;47.510;8.680;2022-08-19T10:08:58;96910.25;;;19.04;66.17
55171;BME280;41060;47.510;8.680;2022-08-19T10:11:25;96914.50;;;18.98;66.91
55171;BME280;41060;47.510;8.680;2022-08-19T10:13:53;96922.72;;;18.97;67.16
55171;BME280;41060;47.510;8.680;2022-08-19T10:16:23;96920.50;;;19.00;67.34
55171;BME280;41060;47.510;8.680;2022-08-19T10:18:51;96918.38;;;18.96;67.37
55171;BME280;41060;47.510;8.680;2022-08-19T10:21:21;96908.88;;;19.08;66.55
55171;BME280;41060;47.510;8.680;2022-08-19T10:23:51;96887.66;;;18.98;66.63
55171;BME280;41060;47.510;8.680;2022-08-19T10:26:21;96909.28;;;19.19;66.97
55171;BME280;41060;47.510;8.680;2022-08-19T10:28:49;96911.41;;;19.24;66.56
55171;BME280;41060;47.510;8.680;2022-08-19T10:31:20;96913.22;;;19.09;66.72
55171;BME280;41060;47.510;8.680;2022-08-19T10:33:50;96902.59;;;19.15;66.57
55171;BME280;41060;47.510;8.680;2022-08-19T10:36:25;96915.28;;;19.22;66.73
55171;BME280;41060;47.510;8.680;2022-08-19T10:38:54;96918.63;;;19.24;65.99
55171;BME280;41060;47.510;8.680;2022-08-19T10:41:24;96926.13;;;18.91;67.17
55171;BME280;41060;47.510;8.680;2022-08-19T10:43:52;96920.88;;;18.97;67.51
55171;BME280;41060;47.510;8.680;2022-08-19T10:46:21;96924.38;;;19.21;67.08
55171;BME280;41060;47.510;8.680;2022-08-19T10:48:52;96910.38;;;19.10;66.28
55171;BME280;41060;47.510;8.680;2022-08-19T10:51:20;96932.38;;;19.06;67.48
55171;BME280;41060;47.510;8.680;2022-08-19T10:54:08;96933.03;;;19.08;67.52
55171;BME280;41060;47.510;8.680;2022-08-19T10:56:35;96937.41;;;18.78;68.38
55171;BME280;41060;47.510;8.680;2022-08-19T10:59:22;96935.47;;;19.17;67.58
55171;BME280;41060;47.510;8.680;2022-08-19T11:01:50;96929.38;;;19.24;67.23
55171;BME280;41060;47.510;8.680;2022-08-19T11:04:19;96901.53;;;19.02;67.24
55171;BME280;41060;47.510;8.680;2022-08-19T11:06:48;96928.97;;;19.12;67.35
55171;BME280;41060;47.510;8.680;2022-08-19T11:09:18;96934.41;;;19.04;67.10
55171;BME280;41060;47.510;8.680;2022-08-19T11:11:47;96918.75;;;19.07;66.90
55171;BME280;41060;47.510;8.680;2022-08-19T11:14:17;96924.50;;;19.04;67.18
55171;BME280;41060;47.510;8.680;2022-08-19T11:16:46;96940.50;;;19.21;66.38
55171;BME280;41060;47.510;8.680;2022-08-19T11:19:14;96937.25;;;19.25;66.29
55171;BME280;41060;47.510;8.680;2022-08-19T11:21:47;96940.91;;;19.09;66.46
55171;BME280;41060;47.510;8.680;2022-08-19T11:24:17;96941.38;;;19.13;66.60
55171;BME280;41060;47.510;8.680;2022-08-19T11:26:46;96950.56;;;19.18;66.06
55171;BME280;41060;47.510;8.680;2022-08-19T11:29:16;96944.34;;;19.41;65.43
55171;BME280;41060;47.510;8.680;2022-08-19T11:31:45;96955.69;;;19.28;65.30
55171;BME280;41060;47.510;8.680;2022-08-19T11:34:13;96955.69;;;19.28;66.23
55171;BME280;41060;47.510;8.680;2022-08-19T11:36:45;96940.72;;;19.11;65.68
55171;BME280;41060;47.510;8.680;2022-08-19T11:39:14;96959.50;;;19.34;65.61
55171;BME280;41060;47.510;8.680;2022-08-19T11:41:41;96962.34;;;19.32;65.53
55171;BME280;41060;47.510;8.680;2022-08-19T11:44:09;96966.66;;;19.18;66.32
55171;BME280;41060;47.510;8.680;2022-08-19T11:46:37;96937.59;;;18.99;66.76
55171;BME280;41060;47.510;8.680;2022-08-19T11:49:05;96965.88;;;19.10;66.75
55171;BME280;41060;47.510;8.680;2022-08-19T11:51:35;96972.63;;;19.51;65.26
55171;BME280;41060;47.510;8.680;2022-08-19T11:54:05;96970.31;;;19.48;65.25
55171;BME280;41060;47.510;8.680;2022-08-19T11:56:32;96976.91;;;19.61;64.51
55171;BME280;41060;47.510;8.680;2022-08-19T11:59:00;96979.63;;;19.75;64.21
55171;BME280;41060;47.510;8.680;2022-08-19T12:01:28;96975.66;;;19.71;64.58
55171;BME280;41060;47.510;8.680;2022-08-19T12:03:56;96975.59;;;19.94;64.39
55171;BME280;41060;47.510;8.680;2022-08-19T12:06:28;96971.22;;;20.08;63.43
55171;BME280;41060;47.510;8.680;2022-08-19T12:09:02;96979.38;;;20.00;64.43
55171;BME280;41060;47.510;8.680;2022-08-19T12:11:31;96973.75;;;20.09;63.84
55171;BME280;41060;47.510;8.680;2022-08-19T12:13:58;96976.44;;;20.09;64.09
55171;BME280;41060;47.510;8.680;2022-08-19T12:16:27;96980.75;;;20.10;64.24
55171;BME280;41060;47.510;8.680;2022-08-19T12:18:55;96968.28;;;20.03;64.61
55171;BME280;41060;47.510;8.680;2022-08-19T12:21:24;96979.94;;;20.10;64.92
55171;BME280;41060;47.510;8.680;2022-08-19T12:23:53;96973.09;;;20.07;64.92
55171;BME280;41060;47.510;8.680;2022-08-19T12:26:20;96977.34;;;20.02;65.32
55171;BME280;41060;47.510;8.680;2022-08-19T12:28:49;96969.09;;;20.03;65.63
55171;BME280;41060;47.510;8.680;2022-08-19T12:31:16;96971.72;;;20.26;64.54
55171;BME280;41060;47.510;8.680;2022-08-19T12:33:43;96974.75;;;20.23;64.84
55171;BME280;41060;47.510;8.680;2022-08-19T12:36:12;96968.47;;;20.16;65.15
55171;BME280;41060;47.510;8.680;2022-08-19T12:38:39;96972.53;;;20.26;64.60
55171;BME280;41060;47.510;8.680;2022-08-19T12:41:09;96969.91;;;20.18;64.44
55171;BME280;41060;47.510;8.680;2022-08-19T12:43:37;96968.91;;;20.19;64.48
55171;BME280;41060;47.510;8.680;2022-08-19T12:46:06;96958.53;;;20.16;64.58
55171;BME280;41060;47.510;8.680;2022-08-19T12:48:34;96964.75;;;20.17;64.74
55171;BME280;41060;47.510;8.680;2022-08-19T12:51:06;96930.50;;;19.67;65.52
55171;BME280;41060;47.510;8.680;2022-08-19T12:53:33;96965.94;;;20.00;64.96
55171;BME280;41060;47.510;8.680;2022-08-19T12:56:00;96935.53;;;19.84;65.66
55171;BME280;41060;47.510;8.680;2022-08-19T12:58:27;96968.06;;;20.19;64.93
55171;BME280;41060;47.510;8.680;2022-08-19T13:00:54;96931.59;;;20.24;63.34
55171;BME280;41060;47.510;8.680;2022-08-19T13:03:23;96975.53;;;20.46;64.08
55171;BME280;41060;47.510;8.680;2022-08-19T13:05:54;96967.06;;;20.34;64.13
55171;BME280;41060;47.510;8.680;2022-08-19T13:08:22;96963.94;;;20.31;64.38
55171;BME280;41060;47.510;8.680;2022-08-19T13:10:48;96963.72;;;20.18;64.86
55171;BME280;41060;47.510;8.680;2022-08-19T13:13:16;96964.19;;;20.07;65.55
55171;BME280;41060;47.510;8.680;2022-08-19T13:15:43;96956.13;;;20.07;65.99